Time;durP1;ratioP1;P1;durP2;ratioP2;P2;SDS_P1;SDS_P2;PMS_P1;PMS_P2;Temp;Humidity;BMP_temperature;BMP_pressure;BME280_temperature;BME280_humidity;BME280_pressure;Samples;Min_cycle;Max_cycle;Signal;HPM_P1;HPM_P2
2023/08/18 00:00:08;;;;;;;0.75;0.20;;;;;;;19.87;93.13;101300.78;5015978;28;20034;-66
2023/08/18 00:02:36;;;;;;;1.45;0.52;;;;;;;19.85;93.03;101300.41;5015283;28;20115;-66
2023/08/18 00:05:02;;;;;;;0.32;0.22;;;;;;;19.82;93.13;101292.22;5014128;28;20065;-66
2023/08/18 00:07:28;;;;;;;0.30;0.20;;;;;;;19.81;92.77;101305.09;5016499;28;20072;-66
2023/08/18 00:09:53;;;;;;;0.25;0.25;;;;;;;19.83;92.17;101304.69;5008195;28;20064;-66
2023/08/18 00:12:18;;;;;;;0.60;0.20;;;;;;;19.82;92.80;101306.69;5011353;28;20470;-66
2023/08/18 00:14:44;;;;;;;0.25;0.22;;;;;;;19.83;92.52;101308.22;5016308;28;20033;-65
2023/08/18 00:17:10;;;;;;;0.25;0.20;;;;;;;19.82;92.38;101305.91;5010906;28;20033;-65
2023/08/18 00:19:35;;;;;;;1.10;0.35;;;;;;;19.79;92.86;101302.78;5016152;28;20545;-65
2023/08/18 00:22:01;;;;;;;0.25;0.20;;;;;;;19.85;92.60;101307.81;5014436;28;20093;-65
2023/08/18 00:24:26;;;;;;;0.50;0.32;;;;;;;19.89;92.50;101305.84;4994333;28;20026;-67
2023/08/18 00:26:51;;;;;;;0.47;0.22;;;;;;;19.91;92.32;101298.78;5011350;28;20040;-66
2023/08/18 00:29:17;;;;;;;0.30;0.30;;;;;;;19.89;92.34;101303.09;5011457;28;20029;-65
2023/08/18 00:31:43;;;;;;;0.50;0.40;;;;;;;19.90;92.52;101291.75;4997269;28;20549;-65
2023/08/18 00:34:09;;;;;;;0.77;0.30;;;;;;;19.88;92.21;101296.84;5007968;28;20084;-66
2023/08/18 00:36:35;;;;;;;0.30;0.30;;;;;;;19.90;92.58;101291.00;4996041;28;20026;-66
2023/08/18 00:39:02;;;;;;;1.88;1.17;;;;;;;19.89;92.41;101290.22;4995204;28;20038;-65
2023/08/18 00:41:28;;;;;;;0.38;0.22;;;;;;;19.92;92.53;101277.69;5003422;28;20034;-64
2023/08/18 00:43:54;;;;;;;0.30;0.30;;;;;;;19.90;92.54;101286.28;5008817;28;20037;-65
2023/08/18 00:46:20;;;;;;;0.28;0.28;;;;;;;19.89;92.92;101276.53;5016214;28;20021;-65
2023/08/18 00:48:47;;;;;;;0.43;0.30;;;;;;;19.88;93.37;101282.41;5014439;28;20108;-64
2023/08/18 00:51:13;;;;;;;0.77;0.32;;;;;;;19.84;93.68;101273.47;4998160;28;20034;-65
2023/08/18 00:53:41;;;;;;;0.20;0.20;;;;;;;19.82;93.68;101273.88;4992331;28;20028;-66
2023/08/18 00:56:11;;;;;;;0.47;0.47;;;;;;;19.80;93.62;101271.50;5009118;28;20409;-66
2023/08/18 00:58:37;;;;;;;0.80;0.25;;;;;;;19.80;93.83;101260.59;5013969;28;20041;-66
2023/08/18 01:01:03;;;;;;;0.57;0.50;;;;;;;19.82;93.92;101271.13;5016929;28;20030;-66
2023/08/18 01:03:30;;;;;;;0.75;0.50;;;;;;;19.83;94.00;101272.69;5016091;28;20045;-65
2023/08/18 01:05:56;;;;;;;0.50;0.50;;;;;;;19.85;93.74;101277.75;5005891;28;20080;-66
2023/08/18 01:08:21;;;;;;;0.30;0.20;;;;;;;19.85;94.02;101269.53;5000340;28;20244;-66
2023/08/18 01:11:17;;;;;;;0.70;0.35;;;;;;;19.86;94.02;101273.84;5003803;28;20038;-66
2023/08/18 01:14:05;;;;;;;0.82;0.28;;;;;;;19.90;93.73;101274.59;5008136;28;20050;-66
2023/08/18 01:16:35;;;;;;;0.60;0.32;;;;;;;19.86;94.10;101276.56;4992860;28;20137;-66
2023/08/18 01:19:03;;;;;;;0.30;0.28;;;;;;;19.82;94.34;101278.56;5001825;28;20132;-66
2023/08/18 01:21:29;;;;;;;0.85;0.50;;;;;;;19.86;94.49;101273.84;5011978;28;20479;-66
2023/08/18 01:23:55;;;;;;;0.43;0.35;;;;;;;19.88;94.53;101276.94;5011754;28;20048;-65
2023/08/18 01:26:21;;;;;;;0.57;0.50;;;;;;;19.77;94.86;101274.28;5010601;28;20037;-65
2023/08/18 01:28:47;;;;;;;0.32;0.30;;;;;;;19.80;94.96;101273.50;5007736;28;20084;-65
2023/08/18 01:31:18;;;;;;;0.40;0.40;;;;;;;19.78;95.16;101276.59;5010809;28;20026;-65
2023/08/18 01:33:49;;;;;;;1.52;0.38;;;;;;;19.80;95.31;101270.75;5007791;28;20029;-66
2023/08/18 01:36:21;;;;;;;0.30;0.30;;;;;;;19.80;95.48;101266.06;4998134;28;20041;-66
2023/08/18 01:38:50;;;;;;;0.30;0.30;;;;;;;19.81;95.50;101266.84;5014889;28;20033;-66
2023/08/18 01:41:20;;;;;;;0.35;0.32;;;;;;;19.79;95.39;101269.19;5015246;28;20030;-65
2023/08/18 01:43:45;;;;;;;0.32;0.30;;;;;;;19.78;95.75;101262.94;5013847;28;20033;-66
2023/08/18 01:46:11;;;;;;;0.35;0.35;;;;;;;19.80;95.77;101262.56;4992282;28;20043;-65
2023/08/18 01:48:37;;;;;;;0.57;0.40;;;;;;;19.79;95.93;101259.03;4996501;28;20090;-66
2023/08/18 01:51:02;;;;;;;0.10;0.10;;;;;;;19.78;96.03;101262.94;4996990;28;20529;-66
2023/08/18 01:53:29;;;;;;;13.77;0.60;;;;;;;19.80;96.34;101259.81;4991614;28;20103;-66
2023/08/18 01:55:54;;;;;;;0.50;0.35;;;;;;;19.82;96.32;101264.88;5013492;28;20657;-66
2023/08/18 01:58:20;;;;;;;0.82;0.40;;;;;;;19.86;95.92;101268.38;5003271;28;20101;-66
2023/08/18 02:00:45;;;;;;;0.80;0.50;;;;;;;19.89;95.67;101264.81;5008722;28;20498;-67
2023/08/18 02:03:11;;;;;;;0.52;0.52;;;;;;;19.89;95.91;101262.88;5012093;28;20468;-66
2023/08/18 02:05:39;;;;;;;0.60;0.43;;;;;;;19.89;96.17;101259.34;5018015;28;20537;-66
2023/08/18 02:08:06;;;;;;;0.40;0.30;;;;;;;19.90;95.93;101258.94;5013150;28;20037;-66
2023/08/18 02:10:32;;;;;;;0.50;0.50;;;;;;;19.91;96.02;101254.25;5010150;28;20033;-66
2023/08/18 02:12:58;;;;;;;0.65;0.50;;;;;;;19.93;96.07;101257.38;5002678;28;20038;-66
2023/08/18 02:15:24;;;;;;;1.15;0.47;;;;;;;19.92;96.22;101258.56;4998848;28;20040;-64
2023/08/18 02:17:49;;;;;;;0.40;0.40;;;;;;;19.93;96.41;101265.56;5015891;28;20026;-66
2023/08/18 02:20:15;;;;;;;1.63;0.50;;;;;;;19.92;96.55;101256.59;5013725;28;20033;-65
2023/08/18 02:22:40;;;;;;;1.10;0.50;;;;;;;19.91;96.43;101255.03;5008441;28;20053;-66
2023/08/18 02:25:06;;;;;;;0.65;0.40;;;;;;;19.94;96.22;101242.53;5015347;28;20073;-64
2023/08/18 02:27:31;;;;;;;2.17;0.47;;;;;;;19.94;96.21;101245.25;4993082;28;20030;-65
2023/08/18 02:29:57;;;;;;;0.40;0.40;;;;;;;19.90;96.43;101244.50;5011023;28;20032;-65
2023/08/18 02:32:23;;;;;;;0.70;0.50;;;;;;;19.89;96.56;101245.69;5011032;28;20076;-65
2023/08/18 02:34:48;;;;;;;1.90;0.98;;;;;;;19.89;96.53;101229.28;5008358;28;20037;-65
2023/08/18 02:37:15;;;;;;;0.35;0.35;;;;;;;19.88;96.66;101228.50;5007506;28;20700;-66
2023/08/18 02:39:41;;;;;;;1.05;0.52;;;;;;;19.90;96.42;101233.56;4995933;28;20095;-65
2023/08/18 02:42:08;;;;;;;0.60;0.45;;;;;;;19.85;96.76;101229.31;5009322;28;20041;-65
2023/08/18 02:44:33;;;;;;;1.63;0.65;;;;;;;19.82;96.79;101226.59;4995990;28;20029;-66
2023/08/18 02:47:00;;;;;;;1.00;0.60;;;;;;;19.79;96.92;101225.44;5013463;28;20151;-66
2023/08/18 02:49:25;;;;;;;0.43;0.43;;;;;;;19.76;97.20;101229.00;4989549;28;20113;-66
2023/08/18 02:51:50;;;;;;;1.13;0.60;;;;;;;19.76;97.04;101229.00;5018731;28;20513;-65
2023/08/18 02:54:16;;;;;;;1.27;0.47;;;;;;;19.73;97.35;101233.31;5011709;28;20081;-65
2023/08/18 02:56:43;;;;;;;3.33;0.60;;;;;;;19.77;97.37;101233.28;5013033;28;20048;-65
2023/08/18 02:59:08;;;;;;;0.60;0.60;;;;;;;19.71;97.40;101237.63;4992059;28;20766;-65
2023/08/18 03:01:33;;;;;;;1.30;0.80;;;;;;;19.71;97.70;101243.09;5013006;28;20025;-66
2023/08/18 03:03:59;;;;;;;1.30;1.10;;;;;;;19.72;97.72;101242.69;5006776;28;20030;-66
2023/08/18 03:06:25;;;;;;;0.60;0.57;;;;;;;19.69;97.52;101238.03;5009133;28;20029;-65
2023/08/18 03:08:50;;;;;;;0.50;0.50;;;;;;;19.69;97.82;101240.75;4996859;28;20493;-66
2023/08/18 03:11:16;;;;;;;1.00;0.88;;;;;;;19.70;97.92;101242.28;4993188;28;20104;-65
2023/08/18 03:13:41;;;;;;;2.47;0.85;;;;;;;19.76;97.63;101243.44;5015818;28;20634;-66
2023/08/18 03:16:07;;;;;;;1.42;0.60;;;;;;;19.70;98.12;101250.50;5012139;28;20038;-65
2023/08/18 03:18:33;;;;;;;0.63;0.50;;;;;;;19.72;97.84;101247.38;4992609;28;20037;-65
2023/08/18 03:21:01;;;;;;;0.77;0.60;;;;;;;19.70;98.06;101241.53;5009280;28;20018;-65
2023/08/18 03:23:28;;;;;;;0.77;0.52;;;;;;;19.69;98.27;101234.50;5009944;28;20025;-64
2023/08/18 03:26:04;;;;;;;0.88;0.70;;;;;;;19.69;98.35;101238.03;4998468;28;20447;-64
2023/08/18 03:28:32;;;;;;;0.50;0.50;;;;;;;19.67;98.35;101234.91;5009283;28;20413;-65
2023/08/18 03:31:04;;;;;;;1.17;0.80;;;;;;;19.67;98.28;101225.94;5016749;28;20022;-64
2023/08/18 03:33:31;;;;;;;1.98;0.73;;;;;;;19.62;98.73;101218.94;4997885;28;20041;-65
2023/08/18 03:35:58;;;;;;;0.63;0.50;;;;;;;19.57;99.07;101215.84;5017594;28;20029;-65
2023/08/18 03:38:24;;;;;;;1.15;0.60;;;;;;;19.60;99.16;101215.06;4997296;28;20125;-65
2023/08/18 03:41:00;;;;;;;0.82;0.50;;;;;;;19.62;99.17;101209.97;5010388;28;20064;-66
2023/08/18 03:43:26;;;;;;;0.75;0.60;;;;;;;19.61;99.05;101214.66;5022151;28;20029;-66
2023/08/18 03:46:12;;;;;;;3.40;0.60;;;;;;;19.58;99.35;101218.19;5011085;28;20038;-66
2023/08/18 03:48:37;;;;;;;1.70;0.85;;;;;;;19.51;99.94;101207.31;4935555;29;20039;-65
2023/08/18 03:51:03;;;;;;;1.35;0.80;;;;;;;19.52;99.98;101219.03;4957760;22;21578;-66
2023/08/18 03:53:28;;;;;;;1.58;0.77;;;;;;;19.49;100.00;101220.59;5027649;28;20500;-66
2023/08/18 03:55:59;;;;;;;0.98;0.80;;;;;;;19.52;100.00;101213.56;5013872;28;20037;-66
2023/08/18 03:58:25;;;;;;;0.60;0.60;;;;;;;19.53;100.00;101217.84;5032030;28;20033;-66
2023/08/18 04:01:00;;;;;;;1.30;0.70;;;;;;;19.56;100.00;101208.84;4993147;28;20021;-66
2023/08/18 04:03:26;;;;;;;1.15;0.65;;;;;;;19.56;100.00;101211.56;5008936;28;20036;-66
2023/08/18 04:06:12;;;;;;;2.45;1.02;;;;;;;19.59;100.00;101194.34;5023228;28;20116;-66
2023/08/18 04:08:42;;;;;;;0.75;0.75;;;;;;;19.57;100.00;101202.97;4987495;28;20080;-66
2023/08/18 04:11:12;;;;;;;1.30;0.88;;;;;;;19.62;100.00;101199.81;4986352;28;20411;-65
2023/08/18 04:13:37;;;;;;;0.68;0.38;;;;;;;19.63;100.00;101201.34;4985690;28;20038;-66
2023/08/18 04:16:03;;;;;;;0.98;0.77;;;;;;;19.64;100.00;101196.69;4984558;28;20085;-65
2023/08/18 04:18:29;;;;;;;1.42;0.70;;;;;;;19.64;100.00;101199.41;4988740;28;20042;-65
2023/08/18 04:20:55;;;;;;;1.65;1.08;;;;;;;19.63;100.00;101209.56;4974198;28;20514;-65
2023/08/18 04:23:21;;;;;;;2.55;1.10;;;;;;;19.64;100.00;101202.16;4980329;28;20580;-66
2023/08/18 04:25:47;;;;;;;0.95;0.85;;;;;;;19.69;100.00;101209.91;4979307;28;20292;-66
2023/08/18 04:28:13;;;;;;;1.23;0.90;;;;;;;19.74;100.00;101206.75;4964653;28;20126;-66
2023/08/18 04:30:39;;;;;;;1.60;0.88;;;;;;;19.77;100.00;101214.13;4984775;28;20138;-65
2023/08/18 04:33:10;;;;;;;3.20;0.95;;;;;;;19.72;100.00;101201.66;4961436;28;20046;-66
2023/08/18 04:35:35;;;;;;;1.35;0.77;;;;;;;19.74;100.00;101209.50;4989038;28;20458;-66
2023/08/18 04:38:01;;;;;;;1.23;0.82;;;;;;;19.75;100.00;101214.53;4972875;28;20032;-66
2023/08/18 04:40:26;;;;;;;1.30;0.82;;;;;;;19.76;100.00;101215.34;4962262;28;20038;-65
2023/08/18 04:42:53;;;;;;;3.78;1.50;;;;;;;19.79;100.00;101217.25;4967640;28;20042;-65
2023/08/18 04:45:19;;;;;;;2.90;1.17;;;;;;;19.84;100.00;101213.31;4976264;28;20402;-65
2023/08/18 04:47:44;;;;;;;2.35;1.08;;;;;;;19.83;100.00;101207.06;5011738;28;20060;-65
2023/08/18 04:50:10;;;;;;;1.10;0.90;;;;;;;19.84;100.00;101214.06;5001693;28;20037;-65
2023/08/18 04:52:36;;;;;;;1.70;0.82;;;;;;;19.81;100.00;101206.69;5014778;28;20034;-65
2023/08/18 04:55:02;;;;;;;2.47;1.23;;;;;;;19.83;100.00;101200.81;5010244;28;20140;-65
2023/08/18 04:57:27;;;;;;;4.68;1.15;;;;;;;19.82;100.00;101196.53;5017890;28;20029;-65
2023/08/18 04:59:53;;;;;;;1.73;1.17;;;;;;;19.82;100.00;101205.53;5009231;28;20064;-65
2023/08/18 05:02:18;;;;;;;1.48;1.10;;;;;;;19.79;100.00;101209.84;5006463;28;20038;-65
2023/08/18 05:04:44;;;;;;;3.53;1.17;;;;;;;19.83;100.00;101200.81;5013900;28;20029;-65
2023/08/18 05:07:09;;;;;;;5.90;1.23;;;;;;;19.87;100.00;101205.06;5028282;28;20033;-66
2023/08/18 05:09:35;;;;;;;2.85;1.35;;;;;;;19.90;100.00;101193.31;5009028;28;20495;-65
2023/08/18 05:12:02;;;;;;;2.35;1.17;;;;;;;19.94;100.00;101198.78;5027812;28;20069;-65
2023/08/18 05:14:27;;;;;;;2.60;1.60;;;;;;;19.98;100.00;101197.53;5029066;28;20057;-65
2023/08/18 05:16:52;;;;;;;2.45;1.50;;;;;;;20.01;100.00;101201.44;5013123;28;20040;-66
2023/08/18 05:19:18;;;;;;;2.30;1.25;;;;;;;20.02;100.00;101200.25;5024933;28;20052;-65
2023/08/18 05:21:43;;;;;;;4.50;1.45;;;;;;;20.02;100.00;101202.97;5018937;28;20146;-66
2023/08/18 05:24:09;;;;;;;1.55;1.02;;;;;;;20.08;100.00;101204.88;5030658;28;20545;-66
2023/08/18 05:26:34;;;;;;;2.58;0.95;;;;;;;20.05;100.00;101210.38;5029387;28;20029;-65
2023/08/18 05:29:00;;;;;;;3.17;1.75;;;;;;;19.98;100.00;101205.75;5005542;28;20580;-65
2023/08/18 05:31:25;;;;;;;2.17;1.27;;;;;;;20.05;100.00;101207.66;5020467;28;20052;-66
2023/08/18 05:33:51;;;;;;;4.18;1.60;;;;;;;20.08;100.00;101220.50;5022727;28;20104;-66
2023/08/18 05:36:17;;;;;;;1.27;0.95;;;;;;;20.11;100.00;101215.00;5030993;28;20504;-66
2023/08/18 05:38:43;;;;;;;2.42;1.25;;;;;;;20.13;100.00;101214.63;5002503;28;20068;-66
2023/08/18 05:41:13;;;;;;;3.08;1.77;;;;;;;20.12;100.00;101213.03;5027313;28;20041;-66
2023/08/18 05:43:39;;;;;;;3.20;1.58;;;;;;;20.17;100.00;101215.34;5012026;28;21404;-65
2023/08/18 05:46:05;;;;;;;2.03;1.25;;;;;;;20.28;100.00;101214.09;5030879;28;20083;-65
2023/08/18 05:48:32;;;;;;;2.15;1.48;;;;;;;20.26;100.00;101211.00;5020106;28;20522;-66
2023/08/18 05:51:01;;;;;;;3.03;1.63;;;;;;;20.27;100.00;101214.47;5000791;28;20132;-65
2023/08/18 05:53:27;;;;;;;1.65;1.35;;;;;;;20.32;100.00;101219.53;5025854;28;20365;-66
2023/08/18 05:56:13;;;;;;;2.92;1.60;;;;;;;20.37;100.00;101216.34;5013194;28;20104;-66
2023/08/18 05:58:38;;;;;;;3.28;1.58;;;;;;;20.42;100.00;101213.16;4950478;29;20530;-66
2023/08/18 06:01:04;;;;;;;4.13;1.90;;;;;;;20.26;100.00;101208.25;4948172;29;20118;-66
2023/08/18 06:03:30;;;;;;;3.50;1.92;;;;;;;20.26;100.00;101221.16;4947610;29;20479;-66
2023/08/18 06:06:00;;;;;;;2.78;1.73;;;;;;;20.38;100.00;101217.91;4944918;29;20047;-66
2023/08/18 06:08:26;;;;;;;4.13;1.77;;;;;;;20.42;100.00;101213.16;4949445;29;20043;-65
2023/08/18 06:10:52;;;;;;;4.75;1.92;;;;;;;20.46;100.00;101211.16;4943930;29;20050;-66
2023/08/18 06:13:17;;;;;;;4.82;2.13;;;;;;;20.45;100.00;101215.88;4924413;29;20122;-66
2023/08/18 06:15:45;;;;;;;1.60;1.33;;;;;;;20.49;100.00;101219.34;4937999;29;20066;-66
2023/08/18 06:18:10;;;;;;;4.28;1.52;;;;;;;20.49;100.00;101222.06;4935971;29;20074;-66
2023/08/18 06:20:36;;;;;;;2.67;1.73;;;;;;;20.54;100.00;101223.56;4942573;28;20070;-66
2023/08/18 06:23:01;;;;;;;1.88;1.38;;;;;;;20.58;100.00;101235.25;4945915;29;20118;-66
2023/08/18 06:25:27;;;;;;;5.57;1.83;;;;;;;20.61;100.00;101231.72;4947753;28;20054;-66
2023/08/18 06:27:52;;;;;;;2.40;1.58;;;;;;;20.64;100.00;101231.66;4944775;28;20038;-66
2023/08/18 06:30:18;;;;;;;5.47;2.20;;;;;;;20.67;100.00;101230.09;4945801;28;20136;-65
2023/08/18 06:32:44;;;;;;;4.10;2.10;;;;;;;20.69;100.00;101227.72;4928191;29;20514;-66
2023/08/18 06:35:10;;;;;;;2.88;1.80;;;;;;;20.68;100.00;101231.63;4972643;28;20505;-66
2023/08/18 06:37:35;;;;;;;2.20;1.67;;;;;;;20.68;100.00;101223.41;5023518;28;20091;-66
2023/08/18 06:40:02;;;;;;;1.92;1.60;;;;;;;20.72;100.00;101226.88;5016740;28;20034;-66
2023/08/18 06:42:27;;;;;;;4.78;2.20;;;;;;;20.77;100.00;101223.69;5010123;28;20049;-65
2023/08/18 06:44:53;;;;;;;4.07;1.73;;;;;;;20.77;100.00;101222.94;5022643;28;20037;-66
2023/08/18 06:47:18;;;;;;;5.22;2.50;;;;;;;20.75;100.00;101226.06;5015111;28;20057;-66
2023/08/18 06:49:44;;;;;;;2.47;1.65;;;;;;;20.78;100.00;101222.50;5025875;28;20061;-73
2023/08/18 06:52:09;;;;;;;2.38;1.77;;;;;;;20.80;100.00;101225.63;5026909;28;20079;-66
2023/08/18 06:54:35;;;;;;;4.35;1.92;;;;;;;20.86;100.00;101221.25;5027493;28;20128;-66
2023/08/18 06:57:00;;;;;;;4.05;2.30;;;;;;;20.91;100.00;101225.47;5029075;28;20112;-66
2023/08/18 06:59:26;;;;;;;3.90;1.67;;;;;;;20.92;100.00;101230.56;5025848;28;20088;-66
2023/08/18 07:01:53;;;;;;;4.00;1.75;;;;;;;20.93;100.00;101226.63;5031825;28;20026;-66
2023/08/18 07:04:19;;;;;;;3.63;1.98;;;;;;;20.96;100.00;101225.81;5027559;28;20041;-66
2023/08/18 07:06:44;;;;;;;3.90;1.70;;;;;;;21.00;100.00;101237.47;5022592;28;20033;-66
2023/08/18 07:09:13;;;;;;;3.58;2.03;;;;;;;20.98;100.00;101231.63;5033297;28;20540;-66
2023/08/18 07:11:39;;;;;;;3.67;2.05;;;;;;;20.99;100.00;101227.72;5027562;28;20040;-67
2023/08/18 07:14:04;;;;;;;6.45;2.28;;;;;;;21.02;100.00;101234.38;5028508;28;20401;-66
2023/08/18 07:16:30;;;;;;;4.72;1.95;;;;;;;21.07;100.00;101225.69;5030829;28;20455;-66
2023/08/18 07:18:55;;;;;;;3.10;2.10;;;;;;;21.10;100.00;101236.59;5032031;28;20064;-65
2023/08/18 07:21:21;;;;;;;3.28;1.90;;;;;;;21.14;100.00;101220.09;5019048;28;20108;-66
2023/08/18 07:23:46;;;;;;;4.53;2.20;;;;;;;21.21;100.00;101237.25;5028547;28;20371;-66
2023/08/18 07:26:12;;;;;;;5.53;2.15;;;;;;;21.22;100.00;101236.03;5030453;28;20084;-65
2023/08/18 07:28:37;;;;;;;3.10;1.98;;;;;;;21.27;100.00;101230.09;5033349;28;20033;-66
2023/08/18 07:31:03;;;;;;;4.45;2.13;;;;;;;21.34;99.76;101238.22;5023433;28;20037;-66
2023/08/18 07:33:30;;;;;;;3.10;2.03;;;;;;;21.31;99.93;101235.53;5013556;28;20498;-66
2023/08/18 07:35:56;;;;;;;4.28;2.38;;;;;;;21.27;100.00;101238.31;5031449;28;20427;-67
2023/08/18 07:38:23;;;;;;;4.43;2.20;;;;;;;21.28;98.82;101248.09;5010682;28;20037;-66
2023/08/18 07:40:48;;;;;;;6.07;2.40;;;;;;;21.21;98.87;101242.72;5028004;28;20041;-66
2023/08/18 07:43:14;;;;;;;9.82;2.20;;;;;;;21.21;99.52;101248.22;5030105;28;20041;-66
2023/08/18 07:45:40;;;;;;;3.67;2.33;;;;;;;21.29;99.44;101246.13;5028749;28;20034;-67
2023/08/18 07:48:05;;;;;;;4.95;2.22;;;;;;;21.33;98.98;101247.63;5025824;28;20045;-66
2023/08/18 07:50:31;;;;;;;3.90;2.40;;;;;;;21.38;98.93;101254.63;5032595;28;20041;-65
2023/08/18 07:52:56;;;;;;;4.72;2.17;;;;;;;21.38;98.80;101252.66;5012493;28;20045;-65
2023/08/18 07:55:22;;;;;;;4.32;2.47;;;;;;;21.45;98.71;101249.03;5029297;28;20045;-66
2023/08/18 07:57:48;;;;;;;4.88;2.25;;;;;;;21.52;98.98;101255.16;5032943;28;20033;-66
2023/08/18 08:00:17;;;;;;;6.28;2.45;;;;;;;21.57;98.94;101253.94;4992007;28;20597;-66
2023/08/18 08:02:47;;;;;;;3.40;2.15;;;;;;;21.52;98.48;101255.16;5026641;28;20559;-65
2023/08/18 08:05:16;;;;;;;2.75;1.83;;;;;;;21.58;98.95;101254.72;5006006;28;20500;-65
2023/08/18 08:07:42;;;;;;;4.15;2.20;;;;;;;21.63;98.72;101252.28;5031931;28;20040;-65
2023/08/18 08:10:08;;;;;;;3.25;2.05;;;;;;;21.70;98.37;101248.66;5032797;28;20034;-65
2023/08/18 08:12:35;;;;;;;6.00;3.28;;;;;;;21.77;98.20;101251.28;5029965;28;20099;-66
2023/08/18 08:15:03;;;;;;;6.43;2.53;;;;;;;21.71;98.31;101251.00;5010964;28;20076;-65
2023/08/18 08:17:29;;;;;;;2.70;1.95;;;;;;;21.73;98.16;101254.09;5032495;28;20120;-66
2023/08/18 08:20:00;;;;;;;3.03;1.77;;;;;;;21.79;97.85;101255.19;5014235;28;20064;-66
2023/08/18 08:22:26;;;;;;;3.40;1.95;;;;;;;21.75;97.72;101253.66;5027874;28;20044;-66
2023/08/18 08:24:54;;;;;;;3.45;2.35;;;;;;;21.79;98.04;101262.63;5012722;28;20482;-66
2023/08/18 08:27:20;;;;;;;4.22;2.22;;;;;;;21.86;98.29;101252.34;5032722;28;20367;-66
2023/08/18 08:29:45;;;;;;;3.67;2.58;;;;;;;21.87;97.66;101255.88;4992413;28;20088;-66
2023/08/18 08:32:11;;;;;;;4.10;2.60;;;;;;;21.90;97.77;101263.25;5008423;28;20135;-66
2023/08/18 08:34:40;;;;;;;5.05;2.00;;;;;;;21.95;97.75;101252.56;5014898;28;20038;-66
2023/08/18 08:37:06;;;;;;;3.35;2.00;;;;;;;21.94;97.60;101255.75;5032616;28;20127;-65
2023/08/18 08:39:31;;;;;;;3.53;2.03;;;;;;;21.99;97.44;101252.53;5023870;28;20494;-66
2023/08/18 08:41:57;;;;;;;5.15;2.53;;;;;;;22.02;97.19;101254.44;5024896;28;20036;-66
2023/08/18 08:44:23;;;;;;;4.00;2.33;;;;;;;22.08;97.19;101250.00;5021719;28;20116;-66
2023/08/18 08:46:49;;;;;;;6.60;2.40;;;;;;;22.09;97.37;101255.09;5031744;28;20037;-66
2023/08/18 08:49:35;;;;;;;3.75;2.08;;;;;;;22.12;97.48;101250.72;5032450;28;20034;-66
2023/08/18 08:52:27;;;;;;;5.40;2.30;;;;;;;22.20;96.98;101250.19;4972077;28;20046;-66
2023/08/18 08:54:58;;;;;;;4.38;2.20;;;;;;;22.29;97.07;101255.91;4919044;29;20056;-65
2023/08/18 08:57:23;;;;;;;4.18;2.50;;;;;;;22.38;97.17;101247.09;4913199;29;20111;-66
2023/08/18 08:59:49;;;;;;;4.15;3.05;;;;;;;22.49;97.14;101253.19;4912412;29;20028;-66
2023/08/18 09:02:15;;;;;;;6.57;2.45;;;;;;;22.56;97.04;101252.28;4896659;29;20119;-67
2023/08/18 09:04:40;;;;;;;4.18;2.72;;;;;;;22.62;96.34;101251.41;4912652;29;20063;-66
2023/08/18 09:07:07;;;;;;;3.25;2.20;;;;;;;22.65;95.44;101249.78;4913333;29;20079;-65
2023/08/18 09:09:33;;;;;;;5.57;2.60;;;;;;;22.71;95.33;101248.84;4911863;29;20521;-66
2023/08/18 09:12:06;;;;;;;3.97;2.50;;;;;;;22.74;94.98;101244.50;4910846;29;20132;-66
2023/08/18 09:14:34;;;;;;;7.05;1.92;;;;;;;22.85;94.60;101240.34;4908946;29;20044;-67
2023/08/18 09:17:00;;;;;;;5.38;2.30;;;;;;;23.14;95.30;101244.03;4917425;29;20122;-66
2023/08/18 09:19:26;;;;;;;4.13;2.42;;;;;;;23.43;95.03;101243.41;4912772;29;20143;-65
2023/08/18 09:21:51;;;;;;;4.93;2.75;;;;;;;23.50;93.31;101248.78;4912328;29;20056;-66
2023/08/18 09:24:20;;;;;;;3.60;2.53;;;;;;;23.70;92.68;101233.72;4908265;29;20040;-66
2023/08/18 09:26:46;;;;;;;4.35;2.70;;;;;;;23.62;91.14;101239.81;4907372;29;20560;-65
2023/08/18 09:29:11;;;;;;;4.07;2.47;;;;;;;23.82;90.95;101237.75;4912494;29;20047;-66
2023/08/18 09:31:36;;;;;;;5.63;2.67;;;;;;;24.07;89.91;101232.44;4970734;28;20476;-66
2023/08/18 09:34:04;;;;;;;5.78;1.92;;;;;;;24.20;88.67;101236.03;5025425;28;20048;-66
2023/08/18 09:36:33;;;;;;;4.45;2.20;;;;;;;24.25;87.82;101230.00;5031245;28;20045;-65
2023/08/18 09:39:03;;;;;;;5.18;2.53;;;;;;;24.32;87.65;101227.06;5024036;28;20623;-66
2023/08/18 09:41:28;;;;;;;3.10;2.15;;;;;;;24.36;87.96;101221.44;5021825;28;20026;-66
2023/08/18 09:43:57;;;;;;;4.53;2.38;;;;;;;24.31;87.80;101221.97;5029764;28;20095;-66
2023/08/18 09:46:26;;;;;;;4.65;2.35;;;;;;;24.28;87.44;101215.34;5030524;28;20086;-66
2023/08/18 09:48:53;;;;;;;5.25;2.15;;;;;;;24.52;87.97;101224.94;5022070;28;20030;-66
2023/08/18 09:51:21;;;;;;;2.97;2.10;;;;;;;24.62;87.07;101221.09;5013394;28;20033;-66
2023/08/18 09:53:58;;;;;;;3.60;2.30;;;;;;;24.68;86.62;101215.81;5046332;22;20298;-67
2023/08/18 09:56:30;;;;;;;4.47;2.50;;;;;;;24.72;85.61;101217.28;5036850;28;20044;-66
2023/08/18 09:59:12;;;;;;;4.07;2.35;;;;;;;24.60;85.43;101225.50;5023835;28;20826;-65
2023/08/18 10:01:39;;;;;;;5.10;2.63;;;;;;;24.61;85.46;101222.31;5050006;28;20163;-68
2023/08/18 10:04:07;;;;;;;4.38;2.50;;;;;;;24.57;85.10;101213.38;5017003;28;20498;-65
2023/08/18 10:06:33;;;;;;;3.78;2.50;;;;;;;24.49;85.57;101208.47;5023370;28;20037;-65
2023/08/18 10:09:00;;;;;;;3.63;2.50;;;;;;;24.55;86.30;101213.03;5013260;28;20029;-66
2023/08/18 10:11:26;;;;;;;2.72;1.90;;;;;;;24.73;86.30;101201.53;5007623;28;20025;-66
2023/08/18 10:13:51;;;;;;;4.22;2.30;;;;;;;24.99;86.57;101198.38;5018527;28;20473;-66
2023/08/18 10:16:18;;;;;;;5.22;2.25;;;;;;;25.39;85.74;101207.00;5023250;28;20033;-66
2023/08/18 10:18:43;;;;;;;5.10;2.42;;;;;;;25.78;83.14;101195.44;5030564;28;20033;-67
2023/08/18 10:21:10;;;;;;;5.00;2.53;;;;;;;26.21;83.27;101200.31;5025297;28;20041;-66
2023/08/18 10:23:39;;;;;;;3.50;2.33;;;;;;;26.47;81.42;101198.22;5026426;28;20041;-66
2023/08/18 10:26:05;;;;;;;2.67;1.98;;;;;;;26.77;79.90;101203.81;5022747;28;20517;-65
2023/08/18 10:28:33;;;;;;;4.10;2.42;;;;;;;26.99;78.24;101191.91;5029614;28;20033;-66
2023/08/18 10:31:05;;;;;;;2.95;2.10;;;;;;;27.15;76.74;101194.47;5026420;28;20029;-66
2023/08/18 10:33:39;;;;;;;2.60;1.80;;;;;;;27.04;75.42;101192.09;5002557;28;20088;-67
2023/08/18 10:36:06;;;;;;;3.70;2.17;;;;;;;27.26;76.01;101190.03;5011634;28;20040;-66
2023/08/18 10:38:36;;;;;;;2.95;1.83;;;;;;;27.39;75.89;101195.50;5012306;28;20820;-65
2023/08/18 10:41:03;;;;;;;3.05;1.98;;;;;;;27.48;74.18;101198.28;5006456;28;20061;-66
2023/08/18 10:43:29;;;;;;;3.88;2.17;;;;;;;27.42;74.75;101189.03;5020383;28;20029;-66
2023/08/18 10:46:01;;;;;;;3.13;1.80;;;;;;;27.54;74.43;101186.16;5008522;28;20029;-66
2023/08/18 10:48:32;;;;;;;2.30;1.75;;;;;;;27.81;74.43;101193.75;5023547;28;20072;-66
2023/08/18 10:50:59;;;;;;;2.92;1.95;;;;;;;27.98;73.64;101192.25;4988105;28;20022;-67
2023/08/18 10:53:25;;;;;;;2.88;1.88;;;;;;;28.10;73.20;101188.56;5015887;28;20029;-67
2023/08/18 10:55:53;;;;;;;3.35;2.05;;;;;;;28.21;73.68;101199.94;5028918;28;20140;-67
2023/08/18 10:58:22;;;;;;;2.40;1.70;;;;;;;28.48;73.93;101185.28;5028762;28;20036;-67
2023/08/18 11:00:49;;;;;;;3.47;1.88;;;;;;;28.67;71.84;101188.81;5007601;28;20034;-67
2023/08/18 11:03:35;;;;;;;5.20;2.30;;;;;;;28.77;70.75;101187.53;5019813;28;20025;-65
2023/08/18 11:06:02;;;;;;;4.53;2.13;;;;;;;28.86;69.60;101193.09;4948245;29;20058;-65
2023/08/18 11:08:27;;;;;;;5.10;1.95;;;;;;;28.98;70.75;101192.09;4909537;29;20444;-67
2023/08/18 11:10:53;;;;;;;3.75;2.00;;;;;;;29.13;69.79;101196.53;4949068;29;20054;-67
2023/08/18 11:13:24;;;;;;;1.80;1.52;;;;;;;29.21;68.77;101191.44;4943126;29;20035;-66
2023/08/18 11:15:54;;;;;;;2.40;1.50;;;;;;;29.28;68.29;101185.53;4940740;29;20042;-66
2023/08/18 11:18:21;;;;;;;2.75;1.60;;;;;;;29.17;69.06;101183.25;4944181;29;20055;-66
2023/08/18 11:20:48;;;;;;;2.58;1.52;;;;;;;29.14;69.51;101177.88;4947616;29;20475;-67